Time;durP1;ratioP1;P1;durP2;ratioP2;P2;SDS_P1;SDS_P2;PMS_P1;PMS_P2;Temp;Humidity;BMP_temperature;BMP_pressure;BME280_temperature;BME280_humidity;BME280_pressure;Samples;Min_cycle;Max_cycle;Signal;HPM_P1;HPM_P2
2021/12/02 00:00:07;;;;;;;12.58;6.60;;;;;;;-2.32;86.91;98241.88;1666699;86;20995;-67
2021/12/02 00:02:37;;;;;;;16.80;6.77;;;;;;;-2.31;87.09;98235.39;1653229;84;21005;-67
2021/12/02 00:05:05;;;;;;;12.40;6.08;;;;;;;-2.32;87.29;98233.81;1659618;85;22079;-68
2021/12/02 00:07:32;;;;;;;11.08;6.40;;;;;;;-2.30;87.57;98237.55;1662759;85;21126;-67
2021/12/02 00:09:59;;;;;;;13.53;7.35;;;;;;;-2.31;87.85;98217.92;1666429;84;21545;-67
2021/12/02 00:12:25;;;;;;;12.33;6.70;;;;;;;-2.29;88.19;98219.00;1669240;85;21030;-67
2021/12/02 00:14:52;;;;;;;14.28;7.30;;;;;;;-2.29;88.83;98205.03;1665082;85;20994;-67
2021/12/02 00:17:25;;;;;;;17.17;6.95;;;;;;;-2.29;89.13;98207.72;1655005;85;21034;-67
2021/12/02 00:23:04;;;;;;;18.73;8.58;;;;;;;-2.27;89.85;98204.77;1657857;85;21044;-67
2021/12/02 00:25:33;;;;;;;19.80;9.43;;;;;;;-2.28;90.27;98203.95;1668764;84;20978;-68
2021/12/02 00:27:59;;;;;;;19.45;10.03;;;;;;;-2.25;90.69;98201.27;1661091;84;21042;-68
2021/12/02 00:30:26;;;;;;;19.02;10.15;;;;;;;-2.24;91.14;98193.48;1666374;84;21616;-68
2021/12/02 00:32:53;;;;;;;22.17;10.72;;;;;;;-2.24;91.57;98186.76;1670054;84;21816;-68
2021/12/02 00:35:21;;;;;;;23.62;11.08;;;;;;;-2.22;91.83;98187.30;1663199;84;21069;-67
2021/12/02 00:37:48;;;;;;;18.35;9.75;;;;;;;-2.22;92.08;98180.05;1659549;84;21101;-68
2021/12/02 00:40:15;;;;;;;18.90;9.53;;;;;;;-2.20;92.31;98187.31;1660844;85;21014;-68
2021/12/02 00:42:41;;;;;;;20.72;10.32;;;;;;;-2.18;92.77;98177.63;1665160;84;20986;-68
2021/12/02 00:45:08;;;;;;;21.20;9.70;;;;;;;-2.17;92.95;98175.22;1657884;85;21141;-67
2021/12/02 00:47:36;;;;;;;19.30;10.68;;;;;;;-2.17;93.12;98167.95;1666202;84;21575;-68
2021/12/02 00:50:05;;;;;;;18.27;9.75;;;;;;;-2.15;93.47;98163.66;1643538;85;20974;-68
2021/12/02 00:52:33;;;;;;;21.23;11.08;;;;;;;-2.13;93.60;98166.89;1662998;84;21207;-68
2021/12/02 00:55:02;;;;;;;24.20;11.00;;;;;;;-2.11;93.86;98160.70;1662982;85;21076;-69
2021/12/02 00:57:31;;;;;;;18.82;10.88;;;;;;;-2.11;93.91;98155.33;1647781;85;21826;-68
2021/12/02 01:00:03;;;;;;;23.85;10.80;;;;;;;-2.08;94.10;98159.63;1657015;85;21015;-66
2021/12/02 01:02:30;;;;;;;20.60;10.13;;;;;;;-2.06;94.12;98158.83;1658008;85;21030;-67
2021/12/02 01:04:59;;;;;;;20.25;10.88;;;;;;;-2.04;94.15;98161.25;1670200;85;21525;-67
2021/12/02 01:07:27;;;;;;;20.43;11.05;;;;;;;-2.02;94.24;98155.07;1659888;83;20977;-67
2021/12/02 01:09:53;;;;;;;22.13;12.30;;;;;;;-2.03;94.32;98138.12;1661457;85;21115;-69
2021/12/02 01:12:19;;;;;;;20.25;11.38;;;;;;;-2.00;94.25;98148.89;1655975;85;20870;-68
2021/12/02 01:14:50;;;;;;;20.45;11.15;;;;;;;-1.97;94.16;98143.51;1666332;85;21501;-67
2021/12/02 01:17:16;;;;;;;23.42;11.65;;;;;;;-1.95;94.13;98141.36;1669520;84;20971;-68
2021/12/02 01:19:43;;;;;;;23.30;11.40;;;;;;;-1.93;94.16;98141.36;1674669;84;21059;-69
2021/12/02 01:22:13;;;;;;;18.48;9.95;;;;;;;-1.91;94.16;98141.90;1668128;85;22362;-67
2021/12/02 01:24:42;;;;;;;20.08;10.38;;;;;;;-1.89;94.27;98134.91;1658172;85;21465;-68
2021/12/02 01:27:09;;;;;;;18.40;10.43;;;;;;;-1.86;94.29;98137.86;1665089;85;21052;-68
2021/12/02 01:29:39;;;;;;;19.40;10.80;;;;;;;-1.84;94.29;98132.22;1642992;85;21072;-68
2021/12/02 01:32:11;;;;;;;24.65;12.03;;;;;;;-1.81;94.35;98130.33;1673799;85;21079;-67
2021/12/02 01:34:37;;;;;;;18.35;10.40;;;;;;;-1.78;94.38;98145.94;1651547;85;21163;-68
2021/12/02 01:37:09;;;;;;;23.27;12.78;;;;;;;-1.75;94.38;98134.09;1672821;84;20961;-67
2021/12/02 01:39:35;;;;;;;24.98;13.18;;;;;;;-1.71;94.39;98118.19;1675569;85;20962;-66
2021/12/02 01:42:05;;;;;;;21.73;11.70;;;;;;;-1.69;94.41;98110.11;1666454;84;20950;-66
2021/12/02 01:44:31;;;;;;;22.85;11.25;;;;;;;-1.67;94.49;98104.46;1656156;84;20993;-66
2021/12/02 01:47:00;;;;;;;24.30;12.88;;;;;;;-1.64;94.48;98092.35;1666740;84;21133;-66
2021/12/02 01:49:36;;;;;;;22.45;11.75;;;;;;;-1.65;94.58;98090.20;1664706;85;20991;-66
2021/12/02 01:52:06;;;;;;;23.38;13.00;;;;;;;-1.62;94.59;98089.66;1670263;85;20958;-66
2021/12/02 01:54:37;;;;;;;26.42;13.32;;;;;;;-1.60;94.73;98090.19;1652627;85;20950;-65
2021/12/02 01:57:13;;;;;;;23.65;12.93;;;;;;;-1.57;94.71;98090.19;1669355;84;21505;-65
2021/12/02 01:59:47;;;;;;;25.65;14.45;;;;;;;-1.56;94.75;98095.30;1646450;85;21006;-65
2021/12/02 02:02:16;;;;;;;26.37;13.28;;;;;;;-1.53;94.72;98092.60;1666217;85;20977;-65
2021/12/02 02:04:45;;;;;;;28.38;14.80;;;;;;;-1.52;94.83;98084.80;1652047;86;21030;-65
2021/12/02 02:07:13;;;;;;;29.15;14.10;;;;;;;-1.50;94.93;98083.45;1668010;85;21457;-65
2021/12/02 02:09:48;;;;;;;24.85;14.03;;;;;;;-1.47;94.98;98077.52;1642459;86;20965;-65
2021/12/02 02:12:14;;;;;;;29.48;14.47;;;;;;;-1.44;95.05;98077.52;1670987;85;21453;-65
2021/12/02 02:14:44;;;;;;;26.33;14.40;;;;;;;-1.42;95.03;98086.12;1644561;85;20907;-65
2021/12/02 02:17:43;;;;;;;26.75;14.87;;;;;;;-1.40;95.09;98087.45;1670059;85;20994;-65
2021/12/02 02:19:52;;;;;;;29.80;15.75;;;;;;;-1.39;95.11;98085.03;1664590;85;20930;-65
2021/12/02 02:22:22;;;;;;;26.42;14.65;;;;;;;-1.36;95.22;98073.72;1669737;85;21062;-66
2021/12/02 02:24:48;;;;;;;30.50;15.48;;;;;;;-1.35;95.22;98072.64;1667445;85;21160;-65
2021/12/02 02:27:18;;;;;;;27.45;15.20;;;;;;;-1.35;95.28;98054.33;1653335;85;20974;-66
2021/12/02 02:29:51;;;;;;;31.55;17.02;;;;;;;-1.33;95.31;98060.25;1670695;85;20995;-65
2021/12/02 02:32:30;;;;;;;31.37;16.70;;;;;;;-1.33;95.31;98064.28;1670388;84;20966;-65
2021/12/02 02:34:55;;;;;;;28.87;17.05;;;;;;;-1.32;95.36;98062.40;1669415;85;20891;-66
2021/12/02 02:37:31;;;;;;;29.37;16.65;;;;;;;-1.30;95.34;98076.39;1656586;85;21143;-66
2021/12/02 02:40:01;;;;;;;27.00;15.38;;;;;;;-1.29;95.41;98068.05;1652852;85;20966;-66
2021/12/02 02:42:30;;;;;;;30.62;16.62;;;;;;;-1.26;95.42;98066.15;1671408;85;20982;-67
2021/12/02 02:45:04;;;;;;;28.47;16.80;;;;;;;-1.23;95.07;98058.06;1658824;85;20950;-66
2021/12/02 02:47:34;;;;;;;28.83;15.63;;;;;;;-1.21;95.05;98051.32;1668152;85;21446;-65
2021/12/02 02:50:06;;;;;;;26.05;15.45;;;;;;;-1.18;94.92;98058.05;1668239;85;21123;-67
2021/12/02 02:52:33;;;;;;;27.82;16.50;;;;;;;-1.17;94.77;98068.54;1673236;85;20981;-67
2021/12/02 02:55:00;;;;;;;34.80;18.45;;;;;;;-1.12;94.40;98056.91;1670566;85;20903;-67
2021/12/02 02:57:30;;;;;;;27.90;15.83;;;;;;;-1.10;94.15;98052.86;1660982;86;20914;-67
2021/12/02 03:02:38;;;;;;;28.75;15.32;;;;;;;-1.05;93.94;98042.06;1661324;85;21108;-66
2021/12/02 03:05:10;;;;;;;22.87;13.78;;;;;;;-1.04;93.84;98039.64;1660860;85;21038;-66
2021/12/02 03:07:34;;;;;;;24.15;13.48;;;;;;;-1.02;93.91;98025.34;1660578;85;20945;-66
2021/12/02 03:10:19;;;;;;;27.85;16.02;;;;;;;-1.01;93.74;98016.73;1661207;85;21421;-66
2021/12/02 03:12:35;;;;;;;29.18;15.75;;;;;;;-0.98;93.64;98022.91;1654827;85;20934;-66
2021/12/02 03:17:31;;;;;;;27.30;15.75;;;;;;;-0.95;93.43;98003.50;1661075;85;21044;-66
2021/12/02 03:19:58;;;;;;;24.72;14.90;;;;;;;-0.93;93.25;98013.45;1661105;85;21046;-66
2021/12/02 03:22:25;;;;;;;30.52;15.70;;;;;;;-0.91;93.28;98012.63;1661166;85;20946;-66
2021/12/02 03:24:51;;;;;;;29.63;15.05;;;;;;;-0.89;93.04;98019.89;1661605;85;20962;-66
2021/12/02 03:27:18;;;;;;;28.70;15.50;;;;;;;-0.87;92.99;98005.61;1661055;86;21130;-66
2021/12/02 03:29:44;;;;;;;23.67;13.50;;;;;;;-0.84;92.60;98000.20;1661200;86;20937;-66
2021/12/02 03:32:11;;;;;;;22.70;12.55;;;;;;;-0.82;92.19;97992.10;1661305;86;20958;-66
2021/12/02 03:34:39;;;;;;;23.27;13.48;;;;;;;-0.77;92.09;97988.57;1661158;85;21034;-66
2021/12/02 03:37:06;;;;;;;25.85;13.80;;;;;;;-0.77;91.91;97996.11;1661297;86;20910;-66
2021/12/02 03:39:33;;;;;;;25.37;14.18;;;;;;;-0.75;91.93;97989.90;1661392;86;21940;-66
2021/12/02 03:42:01;;;;;;;23.25;13.05;;;;;;;-0.73;91.48;97989.08;1651591;86;21548;-66
2021/12/02 03:44:27;;;;;;;27.75;14.63;;;;;;;-0.70;91.17;97983.13;1661333;85;21011;-66
2021/12/02 03:46:54;;;;;;;23.12;13.98;;;;;;;-0.68;90.84;97985.55;1660309;85;20918;-66
2021/12/02 03:49:22;;;;;;;22.25;12.25;;;;;;;-0.65;90.59;97980.94;1659546;85;36130;-66
2021/12/02 03:51:48;;;;;;;23.02;12.00;;;;;;;-0.62;90.69;97979.58;1656552;85;21799;-66
2021/12/02 03:54:16;;;;;;;22.98;13.68;;;;;;;-0.60;90.12;97966.63;1652581;84;21488;-66
2021/12/02 03:56:42;;;;;;;20.65;12.05;;;;;;;-0.57;90.18;97967.38;1661836;84;20986;-66
2021/12/02 03:59:09;;;;;;;21.52;12.23;;;;;;;-0.56;89.96;97960.90;1657088;85;21170;-66
2021/12/02 04:01:35;;;;;;;20.40;12.35;;;;;;;-0.55;89.89;97957.92;1658842;85;21081;-66
2021/12/02 04:04:02;;;;;;;20.92;11.38;;;;;;;-0.55;89.83;97954.42;1647454;85;21581;-66
2021/12/02 04:06:29;;;;;;;19.23;11.10;;;;;;;-0.52;89.60;97957.91;1670097;84;21120;-66
2021/12/02 04:09:01;;;;;;;21.80;11.28;;;;;;;-0.50;89.23;97961.13;1657987;85;21005;-66
2021/12/02 04:11:32;;;;;;;21.75;12.30;;;;;;;-0.46;88.96;97961.62;1643494;84;21164;-67
2021/12/02 04:16:51;;;;;;;25.37;11.30;;;;;;;-0.40;88.50;97968.59;1651764;84;21164;-67
2021/12/02 04:19:11;;;;;;;19.55;10.98;;;;;;;-0.37;88.59;97967.22;1665686;84;21632;-67
2021/12/02 04:21:37;;;;;;;19.05;11.40;;;;;;;-0.34;88.44;97968.00;1654008;84;21018;-67
2021/12/02 04:24:05;;;;;;;21.75;12.33;;;;;;;-0.33;88.26;97968.26;1656160;84;21052;-67
2021/12/02 04:26:31;;;;;;;24.63;13.08;;;;;;;-0.30;88.21;97969.58;1666182;84;21020;-67
2021/12/02 04:28:58;;;;;;;24.47;13.00;;;;;;;-0.27;88.17;97967.67;1655417;84;21363;-66
2021/12/02 04:31:24;;;;;;;23.30;12.55;;;;;;;-0.24;88.29;97960.36;1659156;84;21567;-66
2021/12/02 04:33:51;;;;;;;20.27;11.38;;;;;;;-0.23;87.81;97957.38;1656875;84;21464;-66
2021/12/02 04:36:17;;;;;;;21.40;11.25;;;;;;;-0.21;87.65;97955.20;1662751;85;21442;-66
2021/12/02 04:38:44;;;;;;;18.57;10.82;;;;;;;-0.19;87.77;97948.18;1654657;85;21579;-65
2021/12/02 04:41:11;;;;;;;21.77;12.15;;;;;;;-0.18;87.65;97953.29;1619456;86;21959;-65
2021/12/02 04:43:38;;;;;;;26.30;13.65;;;;;;;-0.18;87.78;97945.20;1624584;87;21110;-65
2021/12/02 04:46:04;;;;;;;25.40;14.43;;;;;;;-0.15;87.39;97949.22;1615505;87;20994;-66
2021/12/02 04:48:31;;;;;;;26.45;14.98;;;;;;;-0.13;87.68;97953.23;1625824;87;20997;-66
2021/12/02 04:50:57;;;;;;;22.20;12.03;;;;;;;-0.13;87.63;97943.80;1632342;86;21767;-66
2021/12/02 04:53:24;;;;;;;18.55;11.38;;;;;;;-0.12;87.68;97941.36;1631841;86;21431;-66
2021/12/02 04:55:51;;;;;;;23.30;11.43;;;;;;;-0.11;87.70;97939.47;1620781;86;21033;-65
2021/12/02 04:58:18;;;;;;;20.32;10.88;;;;;;;-0.10;87.67;97923.55;1639995;86;21100;-66
2021/12/02 05:00:44;;;;;;;20.57;11.80;;;;;;;-0.11;87.70;97926.78;1634074;86;21029;-69
2021/12/02 05:03:11;;;;;;;21.12;12.10;;;;;;;-0.10;87.86;97924.34;1638102;87;21020;-68
2021/12/02 05:05:40;;;;;;;24.25;9.90;;;;;;;-0.10;87.99;97923.00;1631534;86;21100;-68
2021/12/02 05:08:06;;;;;;;17.92;10.80;;;;;;;-0.09;88.04;97921.91;1631150;85;20966;-73
2021/12/02 05:10:34;;;;;;;20.57;12.53;;;;;;;-0.08;88.11;97919.47;1622528;86;21009;-66
2021/12/02 05:13:01;;;;;;;18.80;10.68;;;;;;;-0.07;88.24;97925.12;1619397;86;21021;-72
2021/12/02 05:15:27;;;;;;;17.95;10.88;;;;;;;-0.07;88.46;97930.52;1628795;86;21019;-73
2021/12/02 05:17:54;;;;;;;17.75;11.05;;;;;;;-0.06;88.47;97933.48;1636405;87;21102;-77
2021/12/02 05:20:21;;;;;;;17.80;10.15;;;;;;;-0.05;88.50;97932.94;1624692;86;21027;-73
2021/12/02 05:22:47;;;;;;;19.12;10.53;;;;;;;-0.04;88.55;97929.15;1637263;85;20943;-80
2021/12/02 05:25:14;;;;;;;18.45;11.03;;;;;;;-0.05;88.61;97932.39;1629362;86;21179;-68
2021/12/02 05:27:42;;;;;;;21.48;11.68;;;;;;;-0.02;88.70;97939.91;1626084;87;21037;-67
2021/12/02 05:30:10;;;;;;;20.95;11.53;;;;;;;-0.02;88.78;97933.17;1629325;87;21227;-69
2021/12/02 05:32:36;;;;;;;18.40;10.18;;;;;;;-0.01;88.81;97941.52;1671826;85;20895;-67
2021/12/02 05:35:06;;;;;;;21.85;12.47;;;;;;;0.00;88.83;97930.95;1659356;85;20922;-68
2021/12/02 05:37:32;;;;;;;18.30;11.03;;;;;;;0.02;88.99;97935.27;1656652;85;21014;-64
2021/12/02 05:39:59;;;;;;;25.00;11.88;;;;;;;0.03;89.03;97936.88;1658550;84;21081;-68
2021/12/02 05:42:25;;;;;;;19.73;11.28;;;;;;;0.03;89.02;97937.67;1661590;85;21161;-69
2021/12/02 05:44:53;;;;;;;19.00;10.75;;;;;;;0.06;89.00;97934.95;1667051;85;20914;-70
2021/12/02 05:47:19;;;;;;;17.37;10.45;;;;;;;0.11;88.98;97938.94;1663805;84;20970;-74
2021/12/02 05:49:46;;;;;;;23.45;10.80;;;;;;;0.13;88.83;97931.36;1661319;84;20982;-66
2021/12/02 05:52:12;;;;;;;24.60;10.68;;;;;;;0.15;88.92;97929.19;1665034;85;20950;-66
2021/12/02 05:54:39;;;;;;;19.57;9.98;;;;;;;0.17;88.79;97925.66;1670457;85;21224;-65
2021/12/02 05:57:07;;;;;;;23.30;11.12;;;;;;;0.20;88.64;97935.87;1662960;85;20954;-65
2021/12/02 05:59:33;;;;;;;22.22;10.15;;;;;;;0.21;88.71;97938.28;1652498;85;21485;-65
2021/12/02 06:02:00;;;;;;;19.15;9.98;;;;;;;0.22;88.69;97932.34;1656340;84;21020;-65
2021/12/02 06:04:26;;;;;;;28.38;11.10;;;;;;;0.23;88.81;97929.91;1665404;84;21018;-65
2021/12/02 06:06:53;;;;;;;24.98;11.75;;;;;;;0.26;88.76;97932.02;1656888;84;22609;-66
2021/12/02 06:09:20;;;;;;;24.40;12.15;;;;;;;0.28;88.84;97938.75;1655012;85;21152;-66
2021/12/02 06:11:48;;;;;;;26.15;11.80;;;;;;;0.32;89.15;97933.03;1630198;86;21025;-65
2021/12/02 06:14:15;;;;;;;20.50;10.85;;;;;;;0.34;88.74;97930.05;1636409;85;21084;-65
2021/12/02 06:16:42;;;;;;;20.65;10.38;;;;;;;0.36;88.61;97931.91;1639337;85;21095;-65
2021/12/02 06:19:09;;;;;;;18.10;9.45;;;;;;;0.38;88.64;97939.17;1629057;86;21582;-65
2021/12/02 06:21:36;;;;;;;22.77;9.35;;;;;;;0.41;88.55;97933.74;1626199;86;21560;-65
2021/12/02 06:24:05;;;;;;;17.52;9.75;;;;;;;0.43;88.43;97941.81;1631725;86;21013;-65
2021/12/02 06:26:32;;;;;;;28.57;12.78;;;;;;;0.46;88.33;97938.53;1639934;86;21079;-65
2021/12/02 06:28:59;;;;;;;23.80;12.30;;;;;;;0.49;88.33;97938.50;1629108;86;21136;-65
2021/12/02 06:31:25;;;;;;;24.52;12.53;;;;;;;0.50;88.39;97935.52;1634072;86;21165;-65
2021/12/02 06:33:53;;;;;;;18.77;10.60;;;;;;;0.50;88.40;97942.81;1626843;86;21033;-65
2021/12/02 06:36:20;;;;;;;20.45;10.72;;;;;;;0.50;88.52;97934.16;1636482;86;21149;-65
2021/12/02 06:38:46;;;;;;;23.50;11.03;;;;;;;0.52;88.53;97936.03;1639026;86;21128;-67
2021/12/02 06:41:12;;;;;;;24.55;12.63;;;;;;;0.53;88.54;97938.18;1642555;86;20962;-65
2021/12/02 06:43:39;;;;;;;19.80;11.75;;;;;;;0.55;88.78;97930.59;1651724;85;21158;-66
2021/12/02 06:46:06;;;;;;;26.87;12.10;;;;;;;0.57;88.55;97942.72;1658811;84;21112;-66
2021/12/02 06:48:33;;;;;;;18.98;11.38;;;;;;;0.60;88.57;97931.30;1649206;85;21550;-66
2021/12/02 06:51:00;;;;;;;19.92;11.08;;;;;;;0.61;88.62;97938.31;1658674;84;21094;-66
2021/12/02 06:53:26;;;;;;;22.40;10.70;;;;;;;0.63;88.69;97935.33;1675668;84;21064;-69
2021/12/02 06:55:52;;;;;;;31.73;11.80;;;;;;;0.64;88.38;97928.28;1659454;85;21153;-65
2021/12/02 06:58:19;;;;;;;21.82;10.75;;;;;;;0.66;88.41;97932.84;1672094;85;21027;-68
2021/12/02 07:00:45;;;;;;;22.65;11.12;;;;;;;0.69;88.51;97933.36;1665080;85;20967;-67
2021/12/02 07:03:12;;;;;;;20.75;10.50;;;;;;;0.70;88.53;97924.97;1662151;85;21007;-69
2021/12/02 07:05:39;;;;;;;23.27;13.50;;;;;;;0.70;88.38;97928.22;1659775;85;21514;-66
2021/12/02 07:08:05;;;;;;;26.12;14.40;;;;;;;0.71;88.56;97930.63;1653338;85;21124;-67
2021/12/02 07:10:33;;;;;;;26.33;15.88;;;;;;;0.73;89.38;97927.64;1639922;87;21028;-66
2021/12/02 07:13:00;;;;;;;20.77;10.45;;;;;;;0.75;88.84;97917.34;1642429;86;21588;-68
2021/12/02 07:15:30;;;;;;;24.43;11.53;;;;;;;0.77;88.88;97918.66;1637768;86;21492;-67
2021/12/02 07:17:57;;;;;;;24.30;11.73;;;;;;;0.78;88.88;97909.46;1635525;87;20986;-75
2021/12/02 07:20:33;;;;;;;23.02;10.63;;;;;;;0.82;88.86;97909.69;1642138;87;21140;-77
2021/12/02 07:22:59;;;;;;;21.02;10.65;;;;;;;0.86;88.79;97908.81;1640170;86;21142;-77
2021/12/02 07:25:27;;;;;;;22.75;12.05;;;;;;;0.91;88.63;97911.44;1641039;87;21012;-75
2021/12/02 07:27:54;;;;;;;19.77;10.95;;;;;;;0.98;88.74;97925.93;1676929;84;20945;-77
2021/12/02 07:30:21;;;;;;;22.77;10.98;;;;;;;1.05;88.69;97921.52;1678640;84;21068;-78
2021/12/02 07:32:54;;;;;;;16.23;10.10;;;;;;;1.09;88.63;97920.63;1668279;83;21044;-79
2021/12/02 07:35:21;;;;;;;19.23;10.80;;;;;;;1.15;88.43;97934.87;1668284;85;20945;-78
2021/12/02 07:37:50;;;;;;;20.75;11.28;;;;;;;1.22;88.26;97920.41;1655950;85;20969;-74
2021/12/02 07:40:18;;;;;;;22.30;11.80;;;;;;;1.27;88.36;97917.08;1652942;85;21163;-75
2021/12/02 07:42:45;;;;;;;18.48;10.20;;;;;;;1.33;88.38;97915.91;1657206;84;21049;-81
2021/12/02 07:45:13;;;;;;;18.87;10.68;;;;;;;1.39;88.10;97930.69;1677311;84;21168;-75
2021/12/02 07:47:40;;;;;;;17.82;10.75;;;;;;;1.44;88.08;97921.14;1682572;84;21045;-76
2021/12/02 07:50:09;;;;;;;20.88;10.10;;;;;;;1.48;88.09;97924.31;1675555;84;20986;-74
2021/12/02 07:52:45;;;;;;;19.85;11.80;;;;;;;1.51;88.07;97932.39;1683931;84;21571;-76
2021/12/02 07:55:12;;;;;;;25.37;11.15;;;;;;;1.53;88.22;97927.48;1691177;84;21120;-78
2021/12/02 07:57:43;;;;;;;18.42;10.25;;;;;;;1.56;88.26;97929.05;1629103;86;20906;-68
2021/12/02 08:00:14;;;;;;;16.95;8.88;;;;;;;1.60;88.35;97937.38;1634831;86;21018;-69
2021/12/02 08:02:45;;;;;;;18.05;10.90;;;;;;;1.64;88.27;97931.62;1647285;85;21000;-68
2021/12/02 08:05:13;;;;;;;23.30;11.17;;;;;;;1.68;88.33;97927.78;1645856;87;21190;-66
2021/12/02 08:07:43;;;;;;;20.17;10.23;;;;;;;1.73;88.19;97923.64;1632990;86;21040;-66
2021/12/02 08:10:13;;;;;;;18.50;10.10;;;;;;;1.76;88.12;97934.63;1640747;85;21006;-65
2021/12/02 08:12:47;;;;;;;23.20;11.83;;;;;;;1.80;88.00;97936.20;1662649;85;20871;-66
2021/12/02 08:15:11;;;;;;;25.08;12.40;;;;;;;1.81;87.83;97941.31;1661772;85;21508;-66
2021/12/02 08:17:37;;;;;;;17.37;10.63;;;;;;;1.83;88.95;97943.72;1667088;84;21460;-66
2021/12/02 08:20:05;;;;;;;27.00;13.58;;;;;;;1.87;87.99;97944.18;1665492;85;21450;-66
2021/12/02 08:22:32;;;;;;;28.52;13.98;;;;;;;1.87;87.90;97943.37;1664454;84;21797;-66
2021/12/02 08:24:59;;;;;;;28.30;14.40;;;;;;;1.88;87.86;97948.49;1661788;85;21092;-66
2021/12/02 08:27:25;;;;;;;27.13;13.68;;;;;;;1.91;88.76;97939.78;1669064;84;21112;-66
2021/12/02 08:29:52;;;;;;;21.40;12.53;;;;;;;1.98;87.99;97940.74;1657544;84;21021;-66
2021/12/02 08:32:18;;;;;;;19.98;12.35;;;;;;;2.04;87.84;97959.05;1671127;84;21029;-66
2021/12/02 08:34:45;;;;;;;19.05;11.30;;;;;;;2.11;87.64;97958.91;1682458;84;21136;-66
2021/12/02 08:37:12;;;;;;;19.48;10.20;;;;;;;2.13;87.59;97962.67;1679202;84;21037;-66
2021/12/02 08:39:40;;;;;;;22.67;13.83;;;;;;;2.14;87.51;97954.25;1679236;83;21080;-65
2021/12/02 08:42:09;;;;;;;18.60;11.22;;;;;;;2.14;87.59;97948.03;1664768;83;21100;-66
2021/12/02 08:44:39;;;;;;;19.35;10.32;;;;;;;2.15;87.61;97939.61;1678395;84;21077;-66
2021/12/02 08:47:06;;;;;;;21.60;11.33;;;;;;;2.12;87.70;97937.50;1686402;84;21824;-66
2021/12/02 08:49:32;;;;;;;15.63;9.13;;;;;;;2.14;88.04;97939.36;1681261;84;21005;-66
2021/12/02 08:51:59;;;;;;;15.23;9.38;;;;;;;2.17;87.94;97937.96;1679186;83;21001;-66
2021/12/02 08:54:25;;;;;;;18.92;9.60;;;;;;;2.18;88.00;97947.69;1677290;84;21076;-66
2021/12/02 08:56:54;;;;;;;15.43;9.33;;;;;;;2.17;88.18;97940.11;1679629;84;21061;-65
2021/12/02 08:59:21;;;;;;;20.85;9.00;;;;;;;2.21;88.37;97934.91;1657954;85;21512;-66
2021/12/02 09:01:48;;;;;;;13.55;8.13;;;;;;;2.22;88.34;97931.89;1662986;85;20914;-66
2021/12/02 09:04:14;;;;;;;13.43;8.85;;;;;;;2.24;88.53;97925.63;1669619;85;20938;-66
2021/12/02 09:06:41;;;;;;;15.60;9.18;;;;;;;2.27;88.57;97935.06;1662997;85;21076;-65
2021/12/02 09:09:08;;;;;;;15.58;7.95;;;;;;;2.30;88.66;97934.45;1666290;85;21049;-65
2021/12/02 09:11:34;;;;;;;16.07;7.37;;;;;;;2.32;88.62;97936.28;1660933;85;21835;-65
2021/12/02 09:14:04;;;;;;;14.53;7.53;;;;;;;2.34;88.57;97934.08;1663213;85;21037;-65
2021/12/02 09:16:30;;;;;;;11.33;7.40;;;;;;;2.32;88.66;97938.44;1663805;85;20962;-66
2021/12/02 09:18:57;;;;;;;16.07;8.90;;;;;;;2.30;88.57;97932.55;1662172;85;20918;-65
2021/12/02 09:21:24;;;;;;;17.57;10.10;;;;;;;2.31;88.84;97932.00;1672847;84;21006;-66
2021/12/02 09:23:51;;;;;;;21.68;11.18;;;;;;;2.32;88.94;97920.03;1682640;83;21139;-65
2021/12/02 09:26:17;;;;;;;22.25;11.95;;;;;;;2.33;88.93;97915.67;1676603;82;21516;-66
2021/12/02 09:28:51;;;;;;;23.92;12.60;;;;;;;2.35;89.08;97924.84;1688173;84;20978;-66
2021/12/02 09:31:12;;;;;;;18.35;9.48;;;;;;;2.36;89.05;97917.53;1691132;84;21086;-66
2021/12/02 09:33:39;;;;;;;18.52;10.65;;;;;;;2.36;89.26;97918.33;1691920;84;21111;-65
2021/12/02 09:36:05;;;;;;;16.27;9.95;;;;;;;2.37;89.26;97914.52;1682177;84;21156;-69
2021/12/02 09:38:31;;;;;;;18.07;10.40;;;;;;;2.39;89.39;97912.31;1673205;84;21092;-72
2021/12/02 09:40:58;;;;;;;19.07;9.15;;;;;;;2.42;89.56;97906.84;1669650;84;20969;-72
2021/12/02 09:43:24;;;;;;;14.35;8.63;;;;;;;2.45;89.41;97925.20;1662821;85;21002;-76
2021/12/02 09:45:51;;;;;;;14.70;8.73;;;;;;;2.45;89.28;97917.88;1663825;85;21056;-74
2021/12/02 09:48:17;;;;;;;17.02;8.75;;;;;;;2.45;89.17;97917.88;1679436;82;21522;-83
2021/12/02 09:50:53;;;;;;;13.70;8.45;;;;;;;2.43;89.25;97916.02;1653670;85;21089;-91
2021/12/02 09:53:22;;;;;;;16.90;9.95;;;;;;;2.41;89.28;97908.75;1671366;84;21093;-79
2021/12/02 09:56:50;;;;;;;19.60;9.95;;;;;;;2.41;89.39;97905.23;1663326;85;21658;-75
2021/12/02 09:58:27;;;;;;;18.20;10.05;;;;;;;2.39;89.39;97904.19;1656863;85;21111;-74
2021/12/02 10:01:07;;;;;;;18.52;10.75;;;;;;;2.39;89.62;97890.64;1675558;85;22045;-76
2021/12/02 10:03:33;;;;;;;21.97;12.90;;;;;;;2.38;89.84;97894.45;1675849;84;20966;-73
2021/12/02 10:06:07;;;;;;;20.50;10.43;;;;;;;2.39;89.88;97893.91;1665689;85;21005;-70
2021/12/02 10:08:46;;;;;;;21.35;12.70;;;;;;;2.39;89.94;97896.06;1663171;85;20953;-71
2021/12/02 10:11:09;;;;;;;35.30;16.48;;;;;;;2.38;90.01;97887.69;1669632;85;20938;-74
2021/12/02 10:13:50;;;;;;;21.55;12.13;;;;;;;2.38;90.00;97889.04;1669942;84;21546;-76
2021/12/02 10:16:53;;;;;;;43.75;16.67;;;;;;;2.38;90.01;97890.39;1649833;85;20938;-75
2021/12/02 10:22:20;;;;;;;19.35;12.43;;;;;;;2.38;90.20;97888.23;1658033;85;20969;-77
2021/12/02 10:24:04;;;;;;;21.33;10.40;;;;;;;2.38;90.29;97881.47;1649803;85;21080;-75
2021/12/02 10:26:36;;;;;;;17.48;10.30;;;;;;;2.38;90.38;97880.92;1661536;85;21160;-79
2021/12/02 10:29:12;;;;;;;20.23;12.07;;;;;;;2.39;90.41;97885.23;1667147;84;21055;-75
2021/12/02 10:31:42;;;;;;;20.43;12.28;;;;;;;2.39;90.43;97879.81;1653107;85;21104;-71
2021/12/02 10:34:08;;;;;;;20.50;13.53;;;;;;;2.42;90.57;97874.34;1664261;85;20866;-71
2021/12/02 10:36:46;;;;;;;29.00;14.13;;;;;;;2.44;90.63;97877.00;1666051;85;20974;-63
2021/12/02 10:39:21;;;;;;;28.25;14.95;;;;;;;2.48;90.68;97878.00;1655007;85;21130;-64
2021/12/02 10:42:07;;;;;;;20.00;12.03;;;;;;;2.52;90.75;97873.58;1662584;85;20867;-63
2021/12/02 10:44:36;;;;;;;17.82;11.48;;;;;;;2.56;90.42;97867.00;1657494;85;21029;-64
2021/12/02 10:47:12;;;;;;;18.42;11.05;;;;;;;2.61;90.29;97858.21;1661027;84;21032;-64
2021/12/02 10:49:54;;;;;;;16.55;10.38;;;;;;;2.66;90.07;97858.65;1657784;85;21473;-64
2021/12/02 10:52:30;;;;;;;20.12;12.07;;;;;;;2.70;89.85;97858.29;1658740;85;21153;-63
2021/12/02 10:55:09;;;;;;;19.60;10.43;;;;;;;2.73;89.84;97858.23;1658845;85;21096;-64
2021/12/02 10:57:39;;;;;;;21.50;12.00;;;;;;;2.76;89.73;97857.07;1663321;85;21061;-63
2021/12/02 11:00:12;;;;;;;21.62;13.00;;;;;;;2.80;89.65;97853.20;1665335;84;21021;-64
2021/12/02 11:02:45;;;;;;;25.17;13.32;;;;;;;2.86;89.39;97861.45;1667158;83;21503;-64
2021/12/02 11:05:20;;;;;;;21.90;12.95;;;;;;;2.88;89.10;97857.89;1671612;83;22196;-64
2021/12/02 11:08:05;;;;;;;19.05;11.08;;;;;;;2.91;89.17;97857.25;1670595;83;21528;-64
2021/12/02 11:10:36;;;;;;;19.75;11.08;;;;;;;2.95;89.23;97856.88;1664769;83;21076;-64
2021/12/02 11:13:03;;;;;;;20.50;11.30;;;;;;;3.01;89.07;97862.98;1688644;83;21024;-64
2021/12/02 11:15:31;;;;;;;21.95;12.23;;;;;;;3.04;88.63;97853.69;1685334;84;20989;-64
2021/12/02 11:18:05;;;;;;;29.60;17.40;;;;;;;3.06;88.46;97852.02;1645056;85;21132;-64
2021/12/02 11:20:43;;;;;;;35.05;21.23;;;;;;;3.09;88.36;97852.77;1648032;85;21159;-63
2021/12/02 11:23:15;;;;;;;37.90;21.90;;;;;;;3.11;88.11;97854.61;1628719;86;21159;-63
2021/12/02 11:26:00;;;;;;;26.93;17.32;;;;;;;3.13;88.21;97851.84;1631318;86;21057;-64
2021/12/02 11:28:31;;;;;;;28.87;17.30;;;;;;;3.16;88.17;97851.22;1633155;86;21119;-64
2021/12/02 11:30:59;;;;;;;19.48;11.50;;;;;;;3.19;87.91;97847.09;1633427;86;21159;-64
2021/12/02 11:33:35;;;;;;;15.05;9.60;;;;;;;3.19;87.74;97848.45;1628619;86;21516;-64
2021/12/02 11:36:02;;;;;;;14.15;8.53;;;;;;;3.17;87.61;97844.69;1636271;86;20957;-64
2021/12/02 11:38:29;;;;;;;16.23;9.53;;;;;;;3.15;87.58;97852.89;1645367;86;20978;-63
2021/12/02 11:41:00;;;;;;;16.17;9.60;;;;;;;3.14;87.82;97854.00;1631358;86;21697;-63